Aérodrome :
LOGIN :

S'inscrire | Disclaimer

   EN    FR    IT 

 










Légende :    VFR   VFR Marginal   IFR   IFR Intensif   IFR Très Intensif
Visi : 
Plafond : 
>= 8 km
>= 3000ft
5 à 8 km
1000 à 3000 ft
1500m à 5 km
500 à 1000 ft
800 à 1500m
200 à 500 ft
< 800m
< 200 ft
Symboles :   Orages  Brouillard  Fortes neiges  Fortes précipitations  Vent > 20 kt
SIGMETs :   Divers  Orages  Givrage  Turbulence  Onde Orograph.  Cendres Volcan.







- Altitude de l'aérodrome : 17 ft
- Code IATA : GRQ


EHGG - Groningen Eelde

DERNIER METAR :
  • 211325Z AUTO 24010KT 210V270 7000 OVC008 10/08 Q1033 BECMG 9000 BKN014

METARs EXPIRÉS :
  • 211255Z AUTO 23011KT 9000 OVC009 10/08 Q1033 BECMG BKN014
  • 211225Z AUTO 23013KT 210V270 9999 BKN010 OVC013 10/07 Q1033 NOSIG
  • 211155Z AUTO 22013KT 9000 OVC012 11/08 Q1033 TEMPO BKN016
  • 211125Z AUTO 24012KT 210V270 9999 OVC013 11/08 Q1033 TEMPO BKN016
  • 211055Z AUTO 24012KT 210V270 9999 OVC012 11/08 Q1033 BECMG BKN016

TAF AMD TAF EHGG
Valide du 21 à 13h jusqu'au 22 à 18h UTC


211323Z 2113/2218 24012KT 9999 BKN008
TEMPO 2113/2118 BKN013
BECMG 2119/2122 21005KT 7000
BECMG 2202/2205 3000 BR FEW012
PROB40 2202/2209 0400 FG VV000
BECMG 2208/2211 CAVOK
Pas de NOTAMs connus pour ce terrain.



MET'MAP, la Météo Aéronautique d'un coup d'oeil ! - Copyright ORBIFLY Décembre 2007 - Disclaimer

ORBIFLY MET'MAP TEAM :

Programmation & Développement : Alexandra Zaïnal
Conception & Développement : Baudouin d'Aumeries
Co-Programmation & Développement : Marc-Olivier Méhu
Soutien technique & logistique : Manuel Goepfert

Contact : metmap@orbifly.com




SOURCES & CREDITS :

   NOAA